createdAt,value
2023-04-15T00:00:06.178Z,123.3
2023-04-15T00:05:01.176Z,118.6
2023-04-15T00:10:01.144Z,110.1
2023-04-15T00:15:01.538Z,103.8
2023-04-15T00:20:01.143Z,100.4
2023-04-15T00:25:01.250Z,101.8
2023-04-15T00:40:01.282Z,100.9
2023-04-15T00:45:01.257Z,103.6
2023-04-15T00:50:01.500Z,107.7
2023-04-15T00:55:01.859Z,113.8
2023-04-15T01:00:01.168Z,112.2
2023-04-15T01:05:02.232Z,112.0
2023-04-15T01:10:01.143Z,116.5
2023-04-15T01:15:01.270Z,112.6
2023-04-15T01:20:02.202Z,109.6
2023-04-15T01:25:02.269Z,123.1
2023-04-15T01:35:01.341Z,134.2
2023-04-15T01:40:01.223Z,140.6
2023-04-15T01:45:01.325Z,148.8
2023-04-15T01:50:01.519Z,161.4
2023-04-15T01:55:02.392Z,158.5
2023-04-15T02:00:01.212Z,157.7
2023-04-15T02:05:01.367Z,149.4
2023-04-15T02:10:01.207Z,140.8
2023-04-15T02:15:01.385Z,140.5
2023-04-15T02:20:01.244Z,134.1
2023-04-15T02:25:01.277Z,126.5
2023-04-15T02:30:01.228Z,121.3
2023-04-15T02:40:01.325Z,115.7
2023-04-15T02:45:01.247Z,97.9
2023-04-15T02:50:06.163Z,94.5
2023-04-15T02:55:04.631Z,92.4
2023-04-15T03:00:01.172Z,108.0
2023-04-15T03:05:01.290Z,110.7
2023-04-15T03:10:01.158Z,112.7
2023-04-15T03:15:01.248Z,115.0
2023-04-15T03:20:01.159Z,125.3
2023-04-15T03:30:01.223Z,108.3
2023-04-15T03:35:01.306Z,107.6
2023-04-15T03:40:01.462Z,107.8
2023-04-15T03:45:01.225Z,107.0
2023-04-15T03:50:02.210Z,98.8
2023-04-15T03:55:01.248Z,104.8
2023-04-15T04:00:01.157Z,108.5
2023-04-15T04:05:02.250Z,114.9
2023-04-15T04:10:01.153Z,131.1
2023-04-15T04:15:01.306Z,163.7
2023-04-15T04:20:01.157Z,202.0
2023-04-15T04:25:06.278Z,217.3
2023-04-15T04:30:01.151Z,231.1
2023-04-15T04:35:01.245Z,239.7
2023-04-15T04:40:01.147Z,222.4
2023-04-15T04:45:01.274Z,195.2
2023-04-15T04:50:01.145Z,198.2
2023-04-15T04:55:01.302Z,214.8
2023-04-15T05:00:01.137Z,218.7
2023-04-15T05:05:01.204Z,224.1
2023-04-15T05:10:01.125Z,241.6
2023-04-15T05:15:01.329Z,247.1
2023-04-15T05:20:01.098Z,245.1
2023-04-15T05:25:01.153Z,251.8
2023-04-15T05:30:01.097Z,273.0
2023-04-15T05:35:01.592Z,271.8
2023-04-15T05:40:01.230Z,252.9
2023-04-15T05:50:01.240Z,230.4
2023-04-15T05:55:01.304Z,207.3
2023-04-15T06:00:01.209Z,171.6
2023-04-15T06:05:01.466Z,149.9
2023-04-15T06:10:01.226Z,157.1
2023-04-15T06:15:01.227Z,167.0
2023-04-15T06:20:01.156Z,179.1
2023-04-15T06:25:01.291Z,190.7
2023-04-15T06:35:01.299Z,179.8
2023-04-15T06:40:01.117Z,196.0
2023-04-15T06:45:01.266Z,177.6
2023-04-15T06:50:01.102Z,154.4
2023-04-15T06:55:01.248Z,135.8
2023-04-15T07:00:01.089Z,136.6
2023-04-15T07:05:01.154Z,103.9
2023-04-15T07:10:01.088Z,100.2
2023-04-15T07:15:01.186Z,99.3
2023-04-15T07:20:01.087Z,99.0
2023-04-15T07:25:01.688Z,98.2
2023-04-15T07:35:01.230Z,97.1
2023-04-15T07:40:01.096Z,95.4
2023-04-15T07:45:01.143Z,93.9
2023-04-15T07:50:01.080Z,92.7
2023-04-15T07:55:01.224Z,94.5
2023-04-15T08:00:01.084Z,96.6
2023-04-15T08:05:01.233Z,96.0
2023-04-15T08:10:01.079Z,96.4
2023-04-15T08:15:01.173Z,96.8
2023-04-15T08:20:01.105Z,104.5
2023-04-15T08:25:01.246Z,102.5
2023-04-15T08:30:02.818Z,102.8
2023-04-15T08:35:01.245Z,102.6
2023-04-15T08:45:01.266Z,92.2
2023-04-15T08:50:01.152Z,92.0
2023-04-15T08:55:01.313Z,92.3
2023-04-15T09:00:02.958Z,92.7
2023-04-15T09:05:01.330Z,97.6
2023-04-15T09:15:01.312Z,97.6
2023-04-15T09:20:01.164Z,98.3
2023-04-15T09:30:01.197Z,93.2
2023-04-15T09:35:01.285Z,93.6
2023-04-15T09:45:01.244Z,93.6
2023-04-15T10:05:00.965Z,95.6
2023-04-15T10:10:00.871Z,97.3
2023-04-15T10:15:00.992Z,95.3
2023-04-15T10:20:00.879Z,98.1
2023-04-15T10:25:00.977Z,101.2
2023-04-15T10:30:00.876Z,104.0
2023-04-15T10:35:00.953Z,107.2
2023-04-15T10:40:00.892Z,114.1
2023-04-15T10:55:01.547Z,114.4
2023-04-15T11:15:00.878Z,100.2
2023-04-15T11:35:01.226Z,81.6
2023-04-15T11:40:06.110Z,83.3
2023-04-15T11:45:01.162Z,96.1
2023-04-15T11:50:01.071Z,93.0
2023-04-15T12:05:01.626Z,81.0
2023-04-15T12:10:01.518Z,82.3
2023-04-15T12:15:01.566Z,81.8
2023-04-15T12:20:01.686Z,82.0
2023-04-15T12:25:01.581Z,82.1
2023-04-15T12:30:01.471Z,83.6
2023-04-15T12:35:01.552Z,84.7
2023-04-15T12:40:01.464Z,85.8
2023-04-15T12:45:01.545Z,85.7
2023-04-15T12:50:01.459Z,86.6
2023-04-15T12:55:06.508Z,85.8
2023-04-15T13:00:01.446Z,84.0
2023-04-15T13:05:01.606Z,82.8
2023-04-15T13:10:01.449Z,83.2
2023-04-15T13:15:02.102Z,82.0
2023-04-15T13:20:01.461Z,81.5
2023-04-15T13:30:01.628Z,81.8
2023-04-15T13:35:01.791Z,81.3
2023-04-15T13:40:01.622Z,82.8
2023-04-15T13:45:01.718Z,83.5
2023-04-15T13:50:01.653Z,84.6
2023-04-15T13:55:06.207Z,85.4
2023-04-15T14:00:01.644Z,87.0
2023-04-15T14:05:01.771Z,86.7
2023-04-15T14:10:01.687Z,86.2
2023-04-15T14:15:01.791Z,86.3
2023-04-15T14:20:01.468Z,85.6
2023-04-15T14:25:01.501Z,89.0
2023-04-15T14:30:01.465Z,89.4
2023-04-15T14:35:01.471Z,89.8
2023-04-15T14:40:01.369Z,89.4
2023-04-15T14:45:01.503Z,92.5
2023-04-15T14:50:01.376Z,88.5
2023-04-15T14:55:01.451Z,87.4
2023-04-15T15:00:01.325Z,87.6
2023-04-15T15:05:01.561Z,88.0
2023-04-15T15:10:01.482Z,85.2
2023-04-15T15:15:04.868Z,84.4
2023-04-15T15:20:01.569Z,84.2
2023-04-15T15:25:01.572Z,84.9
2023-04-15T15:30:01.456Z,84.5
2023-04-15T15:35:01.500Z,84.4
2023-04-15T15:40:01.433Z,84.2
2023-04-15T15:45:01.498Z,85.5
2023-04-15T15:50:04.292Z,85.0
2023-04-15T15:55:01.595Z,85.5
2023-04-15T16:00:10.953Z,85.8
2023-04-15T16:05:01.589Z,87.4
2023-04-15T16:10:01.788Z,87.2
2023-04-15T16:15:01.494Z,85.6
2023-04-15T16:20:01.584Z,89.2
2023-04-15T16:25:01.467Z,88.8
2023-04-15T16:30:01.419Z,88.5
2023-04-15T16:35:06.450Z,87.7
2023-04-15T16:40:01.431Z,89.2
2023-04-15T16:45:01.497Z,84.8
2023-04-15T16:50:01.413Z,85.0
2023-04-15T16:55:01.497Z,84.2
2023-04-15T17:00:01.414Z,84.4
2023-04-15T17:05:01.473Z,87.3
2023-04-15T17:10:01.627Z,88.4
2023-04-15T17:15:01.519Z,89.2
2023-04-15T17:20:01.364Z,89.3
2023-04-15T17:25:01.456Z,89.9
2023-04-15T17:30:01.400Z,86.8
2023-04-15T17:35:01.368Z,85.4
2023-04-15T17:40:01.361Z,84.2
2023-04-15T17:45:01.503Z,84.3
2023-04-15T17:50:01.390Z,82.6
2023-04-15T17:55:01.558Z,81.8
2023-04-15T18:00:01.359Z,80.9
2023-04-15T18:05:01.439Z,80.8
2023-04-15T18:10:01.541Z,79.5
2023-04-15T18:15:01.476Z,80.4
2023-04-15T18:20:01.626Z,80.9
2023-04-15T18:25:01.458Z,81.6
2023-04-15T18:30:01.355Z,82.4
2023-04-15T18:35:01.375Z,83.1
2023-04-15T18:40:01.329Z,82.2
2023-04-15T18:45:01.374Z,82.1
2023-04-15T18:50:01.347Z,81.6
2023-04-15T18:55:01.439Z,80.9
2023-04-15T19:00:01.306Z,87.0
2023-04-15T19:05:06.370Z,87.1
2023-04-15T19:10:01.510Z,87.2
2023-04-15T19:15:06.317Z,88.0
2023-04-15T19:20:01.308Z,87.4
2023-04-15T19:25:01.374Z,81.6
2023-04-15T19:30:01.284Z,81.4
2023-04-15T19:35:01.384Z,80.8
2023-04-15T19:40:01.273Z,80.0
2023-04-15T19:45:01.449Z,91.9
2023-04-15T19:50:01.305Z,92.2
2023-04-15T19:55:01.413Z,93.2
2023-04-15T20:00:01.264Z,94.4
2023-04-15T20:05:06.386Z,95.8
2023-04-15T20:10:01.738Z,85.6
2023-04-15T20:15:01.308Z,85.7
2023-04-15T20:20:01.387Z,85.0
2023-04-15T20:25:01.397Z,84.4
2023-04-15T20:30:01.241Z,84.4
2023-04-15T20:35:01.384Z,83.4
2023-04-15T20:40:01.428Z,84.1
2023-04-15T20:45:01.347Z,85.3
2023-04-15T20:50:01.201Z,86.1
2023-04-15T20:55:01.292Z,87.3
2023-04-15T21:00:01.236Z,88.8
2023-04-15T21:05:01.386Z,90.8
2023-04-15T21:10:01.449Z,93.4
2023-04-15T21:15:01.471Z,97.5
2023-04-15T21:20:01.317Z,96.6
2023-04-15T21:25:01.337Z,95.8
2023-04-15T21:30:01.209Z,94.7
2023-04-15T21:35:01.404Z,92.6
2023-04-15T21:40:01.221Z,93.4
2023-04-15T21:45:01.322Z,93.6
2023-04-15T21:50:01.222Z,95.1
2023-04-15T21:55:01.298Z,96.5
2023-04-15T22:00:01.245Z,97.7
2023-04-15T22:05:01.297Z,93.4
2023-04-15T22:10:01.198Z,92.9
2023-04-15T22:15:01.261Z,91.8
2023-04-15T22:20:01.226Z,89.6
2023-04-15T22:25:01.422Z,97.4
2023-04-15T22:30:01.199Z,98.5
2023-04-15T22:35:01.330Z,99.4
2023-04-15T22:40:01.204Z,99.7
2023-04-15T22:45:01.300Z,101.3
2023-04-15T22:50:01.203Z,93.9
2023-04-15T22:55:01.269Z,93.3
2023-04-15T23:00:02.228Z,94.4
2023-04-15T23:05:02.337Z,96.7
2023-04-15T23:10:01.247Z,95.3
2023-04-15T23:20:01.309Z,93.4
2023-04-15T23:25:01.320Z,92.8
2023-04-15T23:30:01.124Z,91.8
2023-04-15T23:35:01.239Z,91.1
2023-04-15T23:40:01.104Z,92.6
2023-04-15T23:45:01.203Z,94.3
2023-04-15T23:55:01.208Z,95.5
